createdAt,value
2017-04-24T00:00:57.529Z,9.19
2017-04-24T00:02:07.240Z,9.23
2017-04-24T00:03:17.262Z,9.16
2017-04-24T00:04:27.285Z,9.14
2017-04-24T00:05:37.608Z,9.2
2017-04-24T00:06:47.933Z,9.19
2017-04-24T00:07:58.268Z,9.2
2017-04-24T00:09:08.599Z,9.14
2017-04-24T00:10:18.952Z,9.12
2017-04-24T00:11:29.285Z,9.17
2017-04-24T00:12:39.310Z,9.12
2017-04-24T00:13:49.328Z,9.11
2017-04-24T00:14:59.357Z,9.08
2017-04-24T00:16:09.688Z,9.2
2017-04-24T00:17:19.712Z,9.11
2017-04-24T00:18:30.062Z,9.09
2017-04-24T00:19:40.417Z,9.11
2017-04-24T00:20:50.434Z,9.01
2017-04-24T00:22:00.704Z,9.11
2017-04-24T00:23:11.060Z,9.05
2017-04-24T00:24:21.409Z,9.11
2017-04-24T00:25:31.123Z,9.03
2017-04-24T00:26:41.143Z,9.12
2017-04-24T00:27:51.487Z,9.08
2017-04-24T00:29:01.198Z,8.95
2017-04-24T00:30:11.229Z,9.01
2017-04-24T00:31:21.559Z,8.94
2017-04-24T00:32:31.894Z,8.9
2017-04-24T00:33:42.237Z,9.01
2017-04-24T00:34:52.573Z,8.98
2017-04-24T00:36:02.600Z,8.98
2017-04-24T00:37:12.933Z,8.94
2017-04-24T00:38:23.260Z,9
2017-04-24T00:39:33.286Z,8.92
2017-04-24T00:40:43.631Z,8.92
2017-04-24T00:41:53.993Z,8.77
2017-04-24T00:43:04.349Z,8.86
2017-04-24T00:44:14.381Z,8.76
2017-04-24T00:45:24.721Z,8.8
2017-04-24T00:46:35.069Z,8.77
2017-04-24T00:47:45.409Z,8.85
2017-04-24T00:48:55.754Z,8.8
2017-04-24T00:50:06.091Z,8.68
2017-04-24T00:51:16.427Z,8.77
2017-04-24T00:52:26.758Z,8.77
2017-04-24T00:53:37.085Z,8.68
2017-04-24T00:54:47.403Z,8.65
2017-04-24T00:55:57.743Z,8.64
2017-04-24T00:57:08.077Z,8.64
2017-04-24T00:58:18.139Z,8.6
2017-04-24T00:59:28.474Z,8.62
2017-04-24T01:00:38.495Z,8.6
2017-04-24T01:01:48.831Z,8.61
2017-04-24T01:02:58.548Z,8.58
2017-04-24T01:04:08.883Z,8.6
2017-04-24T01:05:18.906Z,8.58
2017-04-24T01:06:29.256Z,8.54
2017-04-24T01:07:39.590Z,8.57
2017-04-24T01:08:49.918Z,8.57
2017-04-24T01:10:00.249Z,8.52
2017-04-24T01:11:09.960Z,8.58
2017-04-24T01:12:20.307Z,8.6
2017-04-24T01:13:30.631Z,8.47
2017-04-24T01:14:40.672Z,8.52
2017-04-24T01:15:50.870Z,8.46
2017-04-24T01:17:01.201Z,8.49
2017-04-24T01:18:11.564Z,8.47
2017-04-24T01:19:21.910Z,8.46
2017-04-24T01:20:32.274Z,8.49
2017-04-24T01:21:42.338Z,8.46
2017-04-24T01:22:52.364Z,8.47
2017-04-24T01:24:02.385Z,8.35
2017-04-24T01:25:12.414Z,8.5
2017-04-24T01:26:22.755Z,8.34
2017-04-24T01:27:33.096Z,8.35
2017-04-24T01:28:43.446Z,8.35
2017-04-24T01:29:53.776Z,8.34
2017-04-24T01:31:03.487Z,8.32
2017-04-24T01:32:13.808Z,8.26
2017-04-24T01:33:24.149Z,8.29
2017-04-24T01:34:34.501Z,8.28
2017-04-24T01:35:44.516Z,8.36
2017-04-24T01:36:54.893Z,8.32
2017-04-24T01:38:05.240Z,8.36
2017-04-24T01:39:15.593Z,8.26
2017-04-24T01:40:25.924Z,8.32
2017-04-24T01:41:36.264Z,8.31
2017-04-24T01:42:46.269Z,8.32
2017-04-24T01:43:56.617Z,8.29
2017-04-24T01:45:06.626Z,8.31
2017-04-24T01:46:16.973Z,8.22
2017-04-24T01:47:27.301Z,8.25
2017-04-24T01:48:37.633Z,8.22
2017-04-24T01:49:47.657Z,8.24
2017-04-24T01:50:58.000Z,8.16
2017-04-24T01:52:08.012Z,8.11
2017-04-24T01:53:18.333Z,8.17
2017-04-24T01:54:28.355Z,8.19
2017-04-24T01:55:38.686Z,8.17
2017-04-24T01:56:48.718Z,8.29
2017-04-24T01:57:59.049Z,8.22
2017-04-24T01:59:09.382Z,8.26
2017-04-24T02:00:19.718Z,8.22
2017-04-24T02:01:29.742Z,8.26
2017-04-24T02:02:40.094Z,8.28
2017-04-24T02:03:50.455Z,8.28
2017-04-24T02:05:00.206Z,8.35
2017-04-24T02:06:10.215Z,8.26
2017-04-24T02:07:20.554Z,8.28
2017-04-24T02:08:30.273Z,8.25
2017-04-24T02:09:40.624Z,8.36
2017-04-24T02:10:50.954Z,8.34
2017-04-24T02:12:01.275Z,8.31
2017-04-24T02:13:11.581Z,8.36
2017-04-24T02:14:21.958Z,8.21
2017-04-24T02:15:32.301Z,8.28
2017-04-24T02:16:42.312Z,8.26
2017-04-24T02:17:52.653Z,8.14
2017-04-24T02:19:02.681Z,8.29
2017-04-24T02:20:12.703Z,8.22
2017-04-24T02:21:23.035Z,8.25
2017-04-24T02:22:33.043Z,8.21
2017-04-24T02:23:43.062Z,8.22
2017-04-24T02:24:53.392Z,8.26
2017-04-24T02:26:03.724Z,8.31
2017-04-24T02:27:14.062Z,8.17
2017-04-24T02:28:24.090Z,8.24
2017-04-24T02:29:34.427Z,8.28
2017-04-24T02:30:44.752Z,8.16
2017-04-24T02:31:55.081Z,8.31
2017-04-24T02:33:04.486Z,8.11
2017-04-24T02:34:14.841Z,8.17
2017-04-24T02:35:25.182Z,8.31
2017-04-24T02:36:35.521Z,8.22
2017-04-24T02:37:45.881Z,8.26
2017-04-24T02:38:55.920Z,8.28
2017-04-24T02:40:05.661Z,8.21
2017-04-24T02:41:15.994Z,8.29
2017-04-24T02:42:26.019Z,8.19
2017-04-24T02:43:36.391Z,8.22
2017-04-24T02:44:46.437Z,8.19
2017-04-24T02:45:56.771Z,8.28
2017-04-24T02:47:06.786Z,8.19
2017-04-24T02:48:17.120Z,8.25
2017-04-24T02:49:27.459Z,8.17
2017-04-24T02:50:37.782Z,8.26
2017-04-24T02:51:48.119Z,8.24
2017-04-24T02:52:58.136Z,8.35
2017-04-24T02:54:08.479Z,8.31
2017-04-24T02:55:18.525Z,8.31
2017-04-24T02:56:28.873Z,8.32
2017-04-24T02:57:39.191Z,8.31
2017-04-24T02:58:48.604Z,8.44
2017-04-24T02:59:58.932Z,8.35
2017-04-24T03:01:08.963Z,8.42
2017-04-24T03:32:20.542Z,5
2017-04-24T03:33:30.544Z,5.05
2017-04-24T03:34:40.856Z,4.98
2017-04-24T03:35:51.198Z,5.05
2017-04-24T03:37:01.512Z,5.21
2017-04-24T03:38:11.824Z,5.31
2017-04-24T03:39:21.841Z,5.37
2017-04-24T03:40:32.167Z,5.57
2017-04-24T03:41:42.183Z,5.66
2017-04-24T03:42:52.528Z,5.78
2017-04-24T03:44:02.849Z,5.92
2017-04-24T03:45:13.199Z,6.2
2017-04-24T03:46:23.537Z,6.33
2017-04-24T03:47:33.887Z,6.51
2017-04-24T03:48:44.217Z,6.67
2017-04-24T03:49:54.548Z,6.67
2017-04-24T03:51:04.911Z,6.86
2017-04-24T03:52:15.250Z,7.03
2017-04-24T03:53:25.294Z,7.11
2017-04-24T03:54:35.337Z,7.18
2017-04-24T03:55:45.675Z,7.29
2017-04-24T03:56:55.986Z,7.39
2017-04-24T03:58:06.320Z,7.48
2017-04-24T03:59:16.666Z,7.51
2017-04-24T04:00:27.000Z,7.7
2017-04-24T04:01:37.027Z,7.73
2017-04-24T04:02:47.052Z,7.82
2017-04-24T04:03:57.398Z,7.92
2017-04-24T04:05:07.742Z,7.91
2017-04-24T04:06:17.768Z,7.99
2017-04-24T04:07:28.117Z,8.13
2017-04-24T04:08:38.461Z,8.19
2017-04-24T04:09:48.800Z,8.29
2017-04-24T04:10:59.135Z,8.35
2017-04-24T04:12:09.483Z,8.42
2017-04-24T04:13:19.492Z,8.53
2017-04-24T04:14:29.561Z,8.43
2017-04-24T04:15:39.898Z,8.44
2017-04-24T04:16:50.240Z,8.58
2017-04-24T04:18:00.564Z,8.57
2017-04-24T04:19:10.597Z,8.53
2017-04-24T04:20:20.914Z,8.68
2017-04-24T04:21:30.936Z,8.65
2017-04-24T04:22:41.272Z,8.69
2017-04-24T04:23:51.631Z,8.69
2017-04-24T04:25:01.654Z,8.71
2017-04-24T04:26:11.967Z,8.79
2017-04-24T04:27:21.993Z,9.04
2017-04-24T04:28:32.028Z,9.2
2017-04-24T04:29:42.048Z,9.14
2017-04-24T04:30:52.381Z,9.23
2017-04-24T04:32:02.718Z,9.32
2017-04-24T04:33:13.074Z,9.9
2017-04-24T04:34:22.823Z,10.42
2017-04-24T04:35:33.149Z,11.1
2017-04-24T04:36:43.483Z,11.7
2017-04-24T04:37:53.815Z,12.29
2017-04-24T04:39:03.878Z,12.84
2017-04-24T04:40:13.616Z,13.24
2017-04-24T04:41:23.646Z,13.6
2017-04-24T04:42:33.677Z,13.63
2017-04-24T04:43:43.696Z,13.78
2017-04-24T04:44:54.042Z,13.97
2017-04-24T04:46:04.076Z,14.16
2017-04-24T04:47:14.404Z,14.49
2017-04-24T04:48:24.763Z,14.57
2017-04-24T04:49:35.127Z,14.75
2017-04-24T04:50:45.164Z,14.85
2017-04-24T04:51:55.504Z,14.97
2017-04-24T04:53:05.849Z,15.15
2017-04-24T04:54:15.928Z,15.38
2017-04-24T04:55:25.958Z,15.59
2017-04-24T04:56:36.299Z,15.78
2017-04-24T04:57:46.632Z,15.89
2017-04-24T04:58:56.978Z,16.07
2017-04-24T05:00:07.315Z,16.27
2017-04-24T05:01:17.641Z,16.4
2017-04-24T05:02:27.692Z,16.45
2017-04-24T05:03:37.736Z,16.62
2017-04-24T05:04:48.108Z,16.54
2017-04-24T05:05:58.152Z,16.54
2017-04-24T05:07:08.184Z,16.65
2017-04-24T05:08:18.508Z,16.85
2017-04-24T05:09:28.856Z,16.91
2017-04-24T05:10:38.885Z,16.99
2017-04-24T05:11:48.926Z,17.17
2017-04-24T05:12:59.265Z,17.21
2017-04-24T05:14:09.624Z,17.28
2017-04-24T05:15:19.976Z,17.42
2017-04-24T05:16:30.328Z,17.47
2017-04-24T05:17:40.673Z,17.43
2017-04-24T05:18:50.691Z,17.54
2017-04-24T05:20:01.067Z,17.6
2017-04-24T05:21:11.101Z,17.6
2017-04-24T05:22:21.468Z,17.65
2017-04-24T05:23:31.810Z,17.83
2017-04-24T05:24:42.165Z,17.77
2017-04-24T05:25:52.215Z,17.83
2017-04-24T05:27:02.573Z,17.79
2017-04-24T05:28:12.620Z,17.79
2017-04-24T05:29:22.656Z,17.81
2017-04-24T05:30:32.999Z,18.06
2017-04-24T05:31:43.339Z,18.17
2017-04-24T05:32:53.382Z,18.27
2017-04-24T05:34:03.727Z,18.34
2017-04-24T05:35:13.762Z,18.42
2017-04-24T05:36:24.101Z,18.49
2017-04-24T05:37:34.123Z,18.56
2017-04-24T05:38:44.155Z,18.57
2017-04-24T05:39:54.182Z,18.66
2017-04-24T05:41:04.532Z,18.75
2017-04-24T05:42:14.928Z,18.74
2017-04-24T05:43:25.272Z,18.75
2017-04-24T05:44:35.325Z,18.66
2017-04-24T05:45:45.368Z,18.31
2017-04-24T05:46:55.730Z,17.5
2017-04-24T05:48:05.770Z,16.94
2017-04-24T05:49:15.824Z,16.57
2017-04-24T05:50:26.172Z,16.44
2017-04-24T05:51:36.199Z,16.26
2017-04-24T05:52:45.912Z,15.81
2017-04-24T05:53:56.245Z,15.58
2017-04-24T05:55:06.279Z,15.45
2017-04-24T05:56:16.324Z,15.35
2017-04-24T05:57:26.696Z,15.33
2017-04-24T05:58:37.067Z,15.58
2017-04-24T05:59:47.664Z,15.59
2017-04-24T06:00:57.693Z,15.34
2017-04-24T06:02:08.038Z,15.12
2017-04-24T06:03:17.802Z,14.89
2017-04-24T06:04:28.153Z,14.79
2017-04-24T06:05:38.214Z,14.75
2017-04-24T06:06:48.596Z,14.7
2017-04-24T06:07:58.954Z,14.63
2017-04-24T06:09:09.315Z,14.63
2017-04-24T06:10:19.352Z,14.71
2017-04-24T06:11:29.721Z,14.59
2017-04-24T06:12:40.070Z,14.6
2017-04-24T06:13:50.111Z,14.57
2017-04-24T06:15:00.172Z,14.51
2017-04-24T06:16:10.518Z,14.48
2017-04-24T06:17:20.542Z,14.48
2017-04-24T06:18:30.890Z,14.46
2017-04-24T06:19:40.931Z,14.57
2017-04-24T06:20:51.284Z,14.57
2017-04-24T06:22:01.989Z,14.56
2017-04-24T06:23:13.139Z,14.56
2017-04-24T06:24:26.758Z,14.59
2017-04-24T06:25:43.236Z,14.61
2017-04-24T06:27:00.158Z,14.67
2017-04-24T06:28:16.300Z,14.7
2017-04-24T06:29:36.680Z,14.79
2017-04-24T06:30:54.686Z,14.71
2017-04-24T06:32:16.580Z,14.86
2017-04-24T06:33:34.520Z,14.82
2017-04-24T06:34:55.033Z,14.85
2017-04-24T06:36:12.906Z,14.67
2017-04-24T06:37:32.380Z,14.66
2017-04-24T06:38:47.931Z,14.6
2017-04-24T06:39:58.520Z,14.6
2017-04-24T06:41:08.890Z,14.57
2017-04-24T06:42:18.917Z,14.64
2017-04-24T06:43:29.278Z,14.63
2017-04-24T06:44:39.369Z,14.67
2017-04-24T06:45:49.748Z,14.69
2017-04-24T06:47:00.125Z,14.67
2017-04-24T06:48:10.537Z,14.64
2017-04-24T06:49:20.919Z,14.59
2017-04-24T06:50:31.218Z,14.6
2017-04-24T06:51:41.600Z,14.63
2017-04-24T06:52:51.691Z,14.66
2017-04-24T06:54:02.062Z,14.64
2017-04-24T06:55:12.140Z,14.71
2017-04-24T06:56:22.549Z,14.7
2017-04-24T06:57:32.908Z,14.64
2017-04-24T06:58:42.961Z,14.67
2017-04-24T06:59:53.333Z,14.67
2017-04-24T07:01:03.723Z,14.64
2017-04-24T07:02:14.131Z,14.61
2017-04-24T07:03:24.507Z,14.63
2017-04-24T07:04:34.906Z,14.66
2017-04-24T07:05:45.286Z,14.64
2017-04-24T07:06:55.662Z,14.71
2017-04-24T07:08:06.032Z,14.7
2017-04-24T07:09:16.421Z,14.83
2017-04-24T07:10:26.787Z,14.87
2017-04-24T07:11:36.839Z,14.87
2017-04-24T07:12:47.223Z,15
2017-04-24T07:13:57.267Z,14.98
2017-04-24T07:15:07.651Z,15.08
2017-04-24T07:16:18.030Z,15.22
2017-04-24T07:17:28.087Z,15.19
2017-04-24T07:18:37.837Z,15.18
2017-04-24T07:19:48.221Z,15.31
2017-04-24T07:20:58.288Z,15.51
2017-04-24T07:22:08.670Z,15.43
2017-04-24T07:23:19.042Z,15.58
2017-04-24T07:24:29.120Z,15.68
2017-04-24T07:25:39.491Z,15.67
2017-04-24T07:26:49.855Z,15.7
2017-04-24T07:27:59.900Z,15.77
2017-04-24T07:29:10.296Z,15.86
2017-04-24T07:30:20.669Z,15.88
2017-04-24T07:31:31.030Z,15.86
2017-04-24T07:32:41.421Z,16.04
2017-04-24T07:33:51.792Z,15.99
2017-04-24T07:35:02.156Z,16.02
2017-04-24T07:36:12.247Z,16.08
2017-04-24T07:37:22.662Z,16.07
2017-04-24T07:38:32.710Z,16
2017-04-24T07:39:43.088Z,16
2017-04-24T07:40:55.054Z,16.02
2017-04-24T07:42:07.199Z,16.1
2017-04-24T07:43:18.809Z,16.04
2017-04-24T07:44:31.295Z,15.99
2017-04-24T07:45:45.344Z,16.08
2017-04-24T07:46:56.763Z,16.14
2017-04-24T07:48:07.096Z,16.22
2017-04-24T07:49:17.480Z,16.25
2017-04-24T07:50:27.527Z,16.21
2017-04-24T07:51:37.866Z,16.18
2017-04-24T07:52:48.454Z,16.3
2017-04-24T07:53:58.552Z,16.37
2017-04-24T07:55:08.610Z,16.34
2017-04-24T07:56:18.701Z,16.34
2017-04-24T07:57:28.774Z,16.42
2017-04-24T07:58:39.149Z,16.45
2017-04-24T07:59:49.535Z,16.44
2017-04-24T08:00:59.938Z,16.47
2017-04-24T08:02:10.307Z,16.32
2017-04-24T08:03:20.382Z,16.37
2017-04-24T08:04:30.751Z,16.27
2017-04-24T08:05:41.135Z,16.36
2017-04-24T08:06:51.516Z,16.42
2017-04-24T08:08:01.878Z,16.57
2017-04-24T08:09:12.299Z,16.55
2017-04-24T08:10:22.657Z,16.58
2017-04-24T08:11:33.118Z,16.63
2017-04-24T08:12:43.531Z,16.7
2017-04-24T08:13:53.950Z,16.73
2017-04-24T08:15:04.035Z,16.76
2017-04-24T08:16:14.383Z,16.92
2017-04-24T08:17:24.439Z,16.91
2017-04-24T08:18:34.800Z,16.97
2017-04-24T08:19:44.852Z,16.94
2017-04-24T08:20:55.243Z,16.87
2017-04-24T08:22:04.980Z,16.77
2017-04-24T08:23:15.356Z,16.87
2017-04-24T08:24:25.418Z,16.72
2017-04-24T08:25:35.790Z,16.95
2017-04-24T08:26:45.852Z,16.87
2017-04-24T08:27:56.240Z,16.84
2017-04-24T08:29:06.675Z,16.76
2017-04-24T08:30:17.022Z,16.81
2017-04-24T08:31:27.398Z,16.76
2017-04-24T08:32:37.753Z,16.8
2017-04-24T08:33:47.848Z,16.81
2017-04-24T08:34:57.884Z,16.76
2017-04-24T08:36:07.917Z,16.84
2017-04-24T08:37:17.953Z,16.87
2017-04-24T08:38:27.989Z,16.76
2017-04-24T08:39:38.358Z,16.91
2017-04-24T08:40:48.731Z,16.88
2017-04-24T08:41:59.111Z,16.9
2017-04-24T08:43:09.510Z,16.85
2017-04-24T08:44:19.568Z,16.91
2017-04-24T08:45:29.989Z,17
2017-04-24T08:46:40.017Z,17.09
2017-04-24T08:47:50.094Z,17.15
2017-04-24T08:49:00.510Z,17.15
2017-04-24T08:50:10.865Z,17.21
2017-04-24T08:51:21.319Z,17.39
2017-04-24T08:52:31.700Z,17.31
2017-04-24T08:53:42.111Z,17.3
2017-04-24T08:54:52.525Z,17.4
2017-04-24T08:56:02.560Z,17.49
2017-04-24T08:57:12.915Z,17.69
2017-04-24T08:58:23.317Z,17.63
2017-04-24T08:59:33.355Z,17.8
2017-04-24T09:00:43.414Z,17.95
2017-04-24T09:01:53.858Z,18.01
2017-04-24T09:03:04.230Z,18.08
2017-04-24T09:04:14.595Z,17.95
2017-04-24T09:05:24.968Z,18.01
2017-04-24T09:06:35.331Z,18.01
2017-04-24T09:07:45.054Z,18.01
2017-04-24T09:08:55.100Z,18.1
2017-04-24T09:10:05.468Z,18.14
2017-04-24T09:11:15.502Z,18.2
2017-04-24T09:12:25.848Z,18.23
2017-04-24T09:13:36.187Z,18.27
2017-04-24T09:14:46.222Z,18.26
2017-04-24T09:15:56.620Z,18.34
2017-04-24T09:17:07.018Z,18.31
2017-04-24T09:18:17.410Z,18.35
2017-04-24T09:19:27.784Z,18.16
2017-04-24T09:20:38.142Z,17.92
2017-04-24T09:21:48.493Z,18.03
2017-04-24T09:22:58.514Z,17.73
2017-04-24T09:24:08.877Z,17.86
2017-04-24T09:25:18.916Z,18.05
2017-04-24T09:26:28.939Z,17.98
2017-04-24T09:27:39.289Z,18.16
2017-04-24T09:28:49.338Z,18.21
2017-04-24T09:29:59.356Z,18.32
2017-04-24T09:31:09.708Z,18.45
2017-04-24T09:32:20.074Z,18.41
2017-04-24T09:33:30.100Z,18.49
2017-04-24T09:34:40.706Z,18.49
2017-04-24T09:35:51.048Z,18.51
2017-04-24T09:37:01.408Z,18.49
2017-04-24T09:38:11.745Z,18.54
2017-04-24T09:39:21.788Z,18.69
2017-04-24T09:40:31.816Z,18.87
2017-04-24T09:41:42.153Z,18.45
2017-04-24T09:42:52.528Z,18.13
2017-04-24T09:44:02.879Z,18.31
2017-04-24T09:45:12.917Z,18.47
2017-04-24T09:46:22.948Z,18.2
2017-04-24T09:47:33.027Z,18.23
2017-04-24T09:48:43.395Z,18.54
2017-04-24T09:49:53.747Z,18.86
2017-04-24T09:51:04.086Z,19.06
2017-04-24T09:52:14.451Z,19.28
2017-04-24T09:53:24.813Z,19.49
2017-04-24T09:54:35.188Z,19.67
2017-04-24T09:55:45.547Z,19.53
2017-04-24T09:56:55.890Z,19.61
2017-04-24T09:58:05.929Z,19.45
2017-04-24T09:59:15.965Z,19.56
2017-04-24T10:00:26.024Z,19.75
2017-04-24T10:01:36.400Z,20.02
2017-04-24T10:02:46.748Z,20.12
2017-04-24T10:03:57.098Z,20.26
2017-04-24T10:05:07.154Z,20.07
2017-04-24T10:06:17.519Z,20.42
2017-04-24T10:07:27.846Z,20.71
2017-04-24T10:08:38.195Z,20.94
2017-04-24T10:09:47.926Z,21.21
2017-04-24T10:10:57.638Z,21.22
2017-04-24T10:12:07.678Z,21.48
2017-04-24T10:13:18.023Z,21.46
2017-04-24T10:14:28.079Z,21.51
2017-04-24T10:15:38.136Z,21.46
2017-04-24T10:16:48.241Z,21.33
2017-04-24T10:17:58.601Z,21.59
2017-04-24T10:19:08.952Z,21.68
2017-04-24T10:20:18.997Z,21.73
2017-04-24T10:21:29.365Z,21.78
2017-04-24T10:22:39.092Z,21.67
2017-04-24T10:23:49.443Z,21.76
2017-04-24T10:24:59.794Z,21.7
2017-04-24T10:26:09.845Z,21.58
2017-04-24T10:27:20.197Z,21.41
2017-04-24T10:28:30.553Z,21.48
2017-04-24T10:29:40.620Z,21.41
2017-04-24T10:30:51.005Z,21.38
2017-04-24T10:32:01.091Z,21.23
2017-04-24T10:33:11.196Z,21.19
2017-04-24T10:34:21.551Z,21
2017-04-24T10:35:31.924Z,20.48
2017-04-24T10:36:41.958Z,20.53
2017-04-24T10:37:52.360Z,20.61
2017-04-24T10:39:02.424Z,20.64
2017-04-24T10:40:12.790Z,20.76
2017-04-24T10:41:23.157Z,20.85
2017-04-24T10:42:33.523Z,20.9
2017-04-24T10:43:43.557Z,20.93
2017-04-24T10:44:53.896Z,21.09
2017-04-24T10:46:04.247Z,21.04
2017-04-24T10:47:14.625Z,20.81
2017-04-24T10:48:25.239Z,20.25
2017-04-24T10:49:35.605Z,19.83
2017-04-24T10:50:45.960Z,19.68
2017-04-24T10:51:56.320Z,20.02
2017-04-24T10:53:06.677Z,20.38
2017-04-24T10:54:17.047Z,20.54
2017-04-24T10:55:27.406Z,20.63
2017-04-24T10:56:37.171Z,20.72
2017-04-24T10:57:47.199Z,20.96
2017-04-24T10:58:57.557Z,21.09
2017-04-24T11:00:07.907Z,21.16
2017-04-24T11:01:18.252Z,21.15
2017-04-24T11:02:28.599Z,21.09
2017-04-24T11:03:38.632Z,20.96
2017-04-24T11:04:49.010Z,20.83
2017-04-24T11:05:59.376Z,20.78
2017-04-24T11:07:09.742Z,20.76
2017-04-24T11:08:19.488Z,20.82
2017-04-24T11:09:29.875Z,20.74
2017-04-24T11:10:40.237Z,20.72
2017-04-24T11:11:50.310Z,20.18
2017-04-24T11:13:00.352Z,19.86
2017-04-24T11:14:10.396Z,19.75
2017-04-24T11:15:20.741Z,20.05
2017-04-24T11:16:31.098Z,20.16
2017-04-24T11:17:41.461Z,19.86
2017-04-24T11:18:51.835Z,19.6
2017-04-24T11:20:01.878Z,19.97
2017-04-24T11:21:12.227Z,20.01
2017-04-24T11:22:21.935Z,20.07
2017-04-24T11:23:32.530Z,20.19
2017-04-24T11:24:42.898Z,20.26
2017-04-24T11:25:52.930Z,20.38
2017-04-24T11:27:03.291Z,20.57
2017-04-24T11:28:13.639Z,20.64
2017-04-24T11:29:23.706Z,20.86
2017-04-24T11:30:34.052Z,20.88
2017-04-24T11:31:44.438Z,20.97
2017-04-24T11:32:54.804Z,21.06
2017-04-24T11:34:05.209Z,21.13
2017-04-24T11:35:15.561Z,21.15
2017-04-24T11:36:25.892Z,21.27
2017-04-24T11:37:36.244Z,21.41
2017-04-24T11:38:46.604Z,21.56
2017-04-24T11:39:56.325Z,21.64
2017-04-24T11:41:06.367Z,21.74
2017-04-24T11:42:16.431Z,21.68
2017-04-24T11:43:26.787Z,21.71
2017-04-24T11:44:37.147Z,21.55
2017-04-24T11:45:47.505Z,21.61
2017-04-24T11:46:57.552Z,21.52
2017-04-24T11:48:07.290Z,21.52
2017-04-24T11:49:17.637Z,21.51
2017-04-24T11:50:27.995Z,21.49
2017-04-24T11:51:38.346Z,21.43
2017-04-24T11:52:48.697Z,21.52
2017-04-24T11:53:59.057Z,21.59
2017-04-24T11:55:09.421Z,21.71
2017-04-24T11:56:19.786Z,21.61
2017-04-24T11:57:30.140Z,21.55
2017-04-24T11:58:40.163Z,21.4
2017-04-24T11:59:50.527Z,21.36
2017-04-24T12:01:00.592Z,21.36
2017-04-24T12:02:10.633Z,21.23
2017-04-24T12:03:20.696Z,21.21
2017-04-24T12:04:31.047Z,21.23
2017-04-24T12:05:41.400Z,21.19
2017-04-24T12:06:51.445Z,21.21
2017-04-24T12:08:01.787Z,21.16
2017-04-24T12:09:12.172Z,21.23
2017-04-24T12:10:22.534Z,21.18
2017-04-24T12:11:32.564Z,21.16
2017-04-24T12:12:42.614Z,21.18
2017-04-24T12:13:52.986Z,21.18
2017-04-24T12:15:03.341Z,21.19
2017-04-24T12:16:13.699Z,21.21
2017-04-24T12:17:23.427Z,21.19
2017-04-24T12:18:33.783Z,21.22
2017-04-24T12:19:44.139Z,21.25
2017-04-24T12:20:54.531Z,21.28
2017-04-24T12:22:04.886Z,21.41
2017-04-24T12:23:15.228Z,21.52
2017-04-24T12:24:25.258Z,21.45
2017-04-24T12:25:35.626Z,21.58
2017-04-24T12:26:46.042Z,21.56
2017-04-24T12:27:56.392Z,21.59
2017-04-24T12:29:06.449Z,21.49
2017-04-24T12:30:16.506Z,21.51
2017-04-24T12:31:26.863Z,21.45
2017-04-24T12:32:37.230Z,21.4
2017-04-24T12:33:47.596Z,21.41
2017-04-24T12:34:57.965Z,21.46
2017-04-24T12:36:08.326Z,21.51
2017-04-24T12:37:18.667Z,21.59
2017-04-24T12:38:28.714Z,21.08
2017-04-24T12:39:39.091Z,21.23
2017-04-24T12:40:49.136Z,21.22
2017-04-24T12:41:59.494Z,21.31
2017-04-24T12:43:09.532Z,21.33
2017-04-24T12:44:19.887Z,21.19
2017-04-24T12:45:30.228Z,21.28
2017-04-24T12:46:40.594Z,21.33
2017-04-24T12:47:50.614Z,21.33
2017-04-24T12:49:00.960Z,21.31
2017-04-24T12:50:11.279Z,21.41
2017-04-24T12:51:21.628Z,21.33
2017-04-24T12:52:31.988Z,21.4
2017-04-24T12:53:42.376Z,21.43
2017-04-24T12:54:52.413Z,21.49
2017-04-24T12:56:02.461Z,21.46
2017-04-24T12:57:12.806Z,21.49
2017-04-24T12:58:23.154Z,21.38
2017-04-24T12:59:33.207Z,21.49
2017-04-24T13:00:43.557Z,21.45
2017-04-24T13:01:53.915Z,21.34
2017-04-24T13:03:03.650Z,21.3
2017-04-24T13:04:14.009Z,21.41
2017-04-24T13:05:24.043Z,21.45
2017-04-24T13:06:34.377Z,21.4
2017-04-24T13:07:44.774Z,21.36
2017-04-24T13:08:54.813Z,21.33
2017-04-24T13:10:04.542Z,21.27
2017-04-24T13:11:14.870Z,21.22
2017-04-24T13:12:25.235Z,21.22
2017-04-24T13:13:35.584Z,21.25
2017-04-24T13:14:45.621Z,21.23
2017-04-24T13:15:55.667Z,21.22
2017-04-24T13:17:06.010Z,21.21
2017-04-24T13:18:16.356Z,21.21
2017-04-24T13:19:26.719Z,21.25
2017-04-24T13:20:37.078Z,21.18
2017-04-24T13:21:47.114Z,21.21
2017-04-24T13:22:57.152Z,21.18
2017-04-24T13:24:07.523Z,21.21
2017-04-24T13:25:17.883Z,21.16
2017-04-24T13:26:27.928Z,21.18
2017-04-24T13:27:37.653Z,21.18
2017-04-24T13:28:48.054Z,21.18
2017-04-24T13:29:58.403Z,21.33
2017-04-24T13:31:08.141Z,21.31
2017-04-24T13:32:18.191Z,21.48
2017-04-24T13:33:28.576Z,21.36
2017-04-24T13:34:38.921Z,21.34
2017-04-24T13:35:49.294Z,21.37
2017-04-24T13:36:59.660Z,21.38
2017-04-24T13:38:10.012Z,21.4
2017-04-24T13:39:19.721Z,21.51
2017-04-24T13:40:30.056Z,21.49
2017-04-24T13:41:40.431Z,21.49
2017-04-24T13:42:50.792Z,21.49
2017-04-24T13:44:01.153Z,21.52
2017-04-24T13:45:11.524Z,21.49
2017-04-24T13:46:21.868Z,21.45
2017-04-24T13:47:32.237Z,21.46
2017-04-24T13:48:42.595Z,21.31
2017-04-24T13:49:52.953Z,21.41
2017-04-24T13:51:03.013Z,21.34
2017-04-24T13:52:13.062Z,21.33
2017-04-24T13:53:22.780Z,21.18
2017-04-24T13:54:32.833Z,21.19
2017-04-24T13:55:43.214Z,21.31
2017-04-24T13:56:53.250Z,21.43
2017-04-24T13:58:03.283Z,21.41
2017-04-24T13:59:13.614Z,21.52
2017-04-24T14:00:23.960Z,21.52
2017-04-24T14:01:34.045Z,21.64
2017-04-24T14:02:44.397Z,21.55
2017-04-24T14:03:54.423Z,21.59
2017-04-24T14:05:04.779Z,21.64
2017-04-24T14:06:14.822Z,21.61
2017-04-24T14:07:25.181Z,21.62
2017-04-24T14:08:35.536Z,21.59
2017-04-24T14:09:45.887Z,21.61
2017-04-24T14:10:56.230Z,21.55
2017-04-24T14:12:06.250Z,21.52
2017-04-24T14:13:16.312Z,21.55
2017-04-24T14:14:26.660Z,21.53
2017-04-24T14:15:37.007Z,21.52
2017-04-24T14:16:47.352Z,21.48
2017-04-24T14:17:57.369Z,21.58
2017-04-24T14:19:07.730Z,21.56
2017-04-24T14:20:18.080Z,21.59
2017-04-24T14:21:28.463Z,21.58
2017-04-24T14:22:38.753Z,21.61
2017-04-24T14:23:48.792Z,21.58
2017-04-24T14:24:59.126Z,21.53
2017-04-24T14:26:09.179Z,21.64
2017-04-24T14:27:19.225Z,21.56
2017-04-24T14:28:29.275Z,21.58
2017-04-24T14:29:39.651Z,21.45
2017-04-24T14:30:49.674Z,21.56
2017-04-24T14:32:00.045Z,21.48
2017-04-24T14:33:10.400Z,21.53
2017-04-24T14:34:20.743Z,21.52
2017-04-24T14:35:30.489Z,21.52
2017-04-24T14:36:40.875Z,21.66
2017-04-24T14:37:50.624Z,21.46
2017-04-24T14:39:00.687Z,21.49
2017-04-24T14:40:11.069Z,21.46
2017-04-24T14:41:21.417Z,21.52
2017-04-24T14:42:31.776Z,21.45
2017-04-24T14:43:41.800Z,21.55
2017-04-24T14:44:52.195Z,21.61
2017-04-24T14:46:02.255Z,21.56
2017-04-24T14:47:12.610Z,21.59
2017-04-24T14:48:22.686Z,21.68
2017-04-24T14:49:33.043Z,21.67
2017-04-24T14:50:43.088Z,21.62
2017-04-24T14:51:52.828Z,21.58
2017-04-24T14:53:03.178Z,21.56
2017-04-24T14:54:13.232Z,21.58
2017-04-24T14:55:23.271Z,21.51
2017-04-24T14:56:33.641Z,21.61
2017-04-24T14:57:43.999Z,21.56
2017-04-24T14:58:54.365Z,21.49
2017-04-24T15:00:04.413Z,21.52
2017-04-24T15:01:14.482Z,21.59
2017-04-24T15:02:24.518Z,21.59
2017-04-24T15:03:34.587Z,21.56
2017-04-24T15:04:44.952Z,21.55
2017-04-24T15:05:55.311Z,21.61
2017-04-24T15:07:05.668Z,21.55
2017-04-24T15:08:15.706Z,21.62
2017-04-24T15:09:26.007Z,21.59
2017-04-24T15:10:36.058Z,21.56
2017-04-24T15:11:46.435Z,21.49
2017-04-24T15:12:56.474Z,21.45
2017-04-24T15:14:06.844Z,21.38
2017-04-24T15:15:17.445Z,21.48
2017-04-24T15:16:27.791Z,21.48
2017-04-24T15:17:38.172Z,21.37
2017-04-24T15:18:48.533Z,21.4
2017-04-24T15:19:58.891Z,21.36
2017-04-24T15:21:09.246Z,21.37
2017-04-24T15:22:19.595Z,21.31
2017-04-24T15:23:29.662Z,21.31
2017-04-24T15:24:39.695Z,21.38
2017-04-24T15:25:50.058Z,21.46
2017-04-24T15:27:00.410Z,21.49
2017-04-24T15:28:10.811Z,21.52
2017-04-24T15:29:20.581Z,21.55
2017-04-24T15:30:30.935Z,21.51
2017-04-24T15:31:40.951Z,21.4
2017-04-24T15:32:50.990Z,21.33
2017-04-24T15:34:01.035Z,21.3
2017-04-24T15:35:11.383Z,21.34
2017-04-24T15:36:21.730Z,21.31
2017-04-24T15:37:32.083Z,21.4
2017-04-24T15:38:42.438Z,21.52
2017-04-24T15:39:52.798Z,21.51
2017-04-24T15:41:03.151Z,21.55
2017-04-24T15:42:13.508Z,21.62
2017-04-24T15:43:23.560Z,21.59
2017-04-24T15:44:33.962Z,21.56
2017-04-24T15:45:44.312Z,21.55
2017-04-24T15:46:54.355Z,21.55